createdAt,value
2023-02-15T00:02:42.691Z,2.95
2023-02-15T00:07:44.575Z,1.77
2023-02-15T00:12:46.355Z,1.77
2023-02-15T00:17:48.208Z,2.42
2023-02-15T00:22:50.004Z,2.30
2023-02-15T00:27:51.817Z,2.38
2023-02-15T00:32:53.632Z,2.05
2023-02-15T00:37:55.815Z,2.25
2023-02-15T00:42:59.851Z,2.03
2023-02-15T00:48:01.800Z,2.05
2023-02-15T00:53:03.817Z,1.77
2023-02-15T00:58:06.098Z,1.90
2023-02-15T01:03:08.362Z,3.10
2023-02-15T01:08:10.285Z,2.40
2023-02-15T01:13:12.133Z,1.88
2023-02-15T01:18:14.173Z,1.80
2023-02-15T01:23:16.658Z,1.88
2023-02-15T01:28:18.697Z,2.33
2023-02-15T01:33:20.482Z,2.33
2023-02-15T01:38:22.487Z,1.50
2023-02-15T01:43:41.563Z,2.03
2023-02-15T01:48:49.097Z,1.88
2023-02-15T01:54:01.660Z,2.08
2023-02-15T01:59:09.535Z,2.45
2023-02-15T02:04:29.374Z,1.85
2023-02-15T02:09:31.468Z,1.83
2023-02-15T02:14:33.588Z,1.90
2023-02-15T02:19:47.453Z,1.60
2023-02-15T02:25:27.259Z,1.90
2023-02-15T02:30:29.418Z,1.52
2023-02-15T02:35:38.152Z,2.03
2023-02-15T02:41:17.358Z,2.05
2023-02-15T02:46:31.481Z,1.52
2023-02-15T02:51:33.590Z,2.00
2023-02-15T02:56:40.665Z,2.38
2023-02-15T03:01:53.195Z,2.00
2023-02-15T03:07:04.734Z,2.08
2023-02-15T03:12:06.923Z,2.13
2023-02-15T03:17:10.267Z,2.40
2023-02-15T03:22:44.268Z,2.53
2023-02-15T03:27:51.148Z,2.08
2023-02-15T03:32:54.412Z,1.98
2023-02-15T03:38:01.859Z,1.88
2023-02-15T03:43:12.265Z,2.55
2023-02-15T03:48:14.480Z,1.88
2023-02-15T03:53:22.051Z,1.60
2023-02-15T03:58:42.798Z,2.33
2023-02-15T04:03:50.460Z,1.98
2023-02-15T04:09:10.971Z,2.25
2023-02-15T04:14:31.488Z,1.90
2023-02-15T04:19:52.127Z,2.20
2023-02-15T04:25:15.182Z,2.05
2023-02-15T04:30:19.970Z,1.85
2023-02-15T04:35:21.823Z,2.22
2023-02-15T04:40:23.862Z,1.52
2023-02-15T04:45:25.837Z,1.65
2023-02-15T04:50:27.810Z,2.55
2023-02-15T04:55:29.719Z,1.88
2023-02-15T05:00:31.518Z,2.03
2023-02-15T05:05:33.585Z,2.08
2023-02-15T05:10:35.561Z,1.90
2023-02-15T05:15:37.426Z,1.65
2023-02-15T05:20:39.612Z,2.13
2023-02-15T05:26:00.520Z,2.38
2023-02-15T05:31:12.549Z,2.15
2023-02-15T05:36:14.910Z,1.73
2023-02-15T05:41:17.078Z,1.70
2023-02-15T05:46:19.093Z,2.20
2023-02-15T05:51:20.981Z,2.08
2023-02-15T05:56:23.064Z,1.92
2023-02-15T06:01:24.961Z,2.50
2023-02-15T06:06:27.024Z,2.13
2023-02-15T06:11:28.834Z,2.42
2023-02-15T06:16:30.868Z,2.67
2023-02-15T06:21:32.930Z,2.30
2023-02-15T06:26:34.867Z,1.83
2023-02-15T06:31:36.957Z,2.40
2023-02-15T06:36:38.980Z,1.73
2023-02-15T06:41:40.770Z,1.92
2023-02-15T06:46:42.825Z,2.03
2023-02-15T06:51:44.847Z,1.98
2023-02-15T06:56:47.169Z,2.35
2023-02-15T07:01:50.573Z,2.75
2023-02-15T07:06:54.025Z,2.03
2023-02-15T07:12:14.798Z,2.50
2023-02-15T07:17:34.974Z,2.50
2023-02-15T07:22:38.685Z,2.00
2023-02-15T07:27:41.350Z,2.50
2023-02-15T07:33:05.112Z,2.03
2023-02-15T07:38:07.452Z,1.67
2023-02-15T07:43:09.835Z,2.15
2023-02-15T07:48:11.737Z,2.10
2023-02-15T07:53:13.658Z,2.47
2023-02-15T07:58:15.567Z,2.33
2023-02-15T08:03:17.491Z,2.88
2023-02-15T08:08:31.219Z,4.50
2023-02-15T08:13:33.185Z,6.85
2023-02-15T08:18:35.994Z,5.72
2023-02-15T08:23:37.795Z,6.28
2023-02-15T08:28:40.195Z,5.30
2023-02-15T08:33:43.621Z,5.55
2023-02-15T08:38:45.603Z,5.20
2023-02-15T08:43:50.588Z,4.63
2023-02-15T08:48:53.022Z,5.47
2023-02-15T08:53:59.134Z,5.30
2023-02-15T08:59:01.627Z,5.15
2023-02-15T09:04:06.882Z,7.18
2023-02-15T09:09:09.221Z,5.97
2023-02-15T09:14:17.331Z,5.30
2023-02-15T09:19:20.850Z,5.03
2023-02-15T09:24:22.986Z,4.45
2023-02-15T09:29:25.524Z,5.32
2023-02-15T09:34:27.417Z,4.57
2023-02-15T09:39:29.357Z,5.63
2023-02-15T09:44:59.534Z,6.20
2023-02-15T09:50:22.871Z,5.55
2023-02-15T09:55:30.597Z,5.85
2023-02-15T10:00:56.879Z,6.53
2023-02-15T10:06:43.022Z,7.57
2023-02-15T10:12:03.100Z,6.53
2023-02-15T10:17:27.807Z,5.47
2023-02-15T10:23:03.287Z,5.53
2023-02-15T10:28:16.235Z,5.28
2023-02-15T10:33:18.006Z,6.03
2023-02-15T10:38:38.350Z,3.97
2023-02-15T10:44:15.067Z,4.35
2023-02-15T10:49:34.237Z,4.05
2023-02-15T10:54:45.453Z,4.45
2023-02-15T11:00:03.530Z,4.00
2023-02-15T11:05:37.880Z,3.63
2023-02-15T11:11:03.349Z,4.22
2023-02-15T11:16:20.186Z,3.63
2023-02-15T11:21:27.292Z,3.15
2023-02-15T11:26:45.958Z,3.00
2023-02-15T11:31:54.678Z,3.45
2023-02-15T11:37:02.777Z,3.35
2023-02-15T11:42:21.670Z,3.03
2023-02-15T11:47:24.041Z,2.65
2023-02-15T11:52:25.800Z,3.20
2023-02-15T11:57:36.711Z,2.70
2023-02-15T12:02:42.115Z,2.63
2023-02-15T12:08:02.066Z,3.75
2023-02-15T12:13:12.370Z,2.80
2023-02-15T12:18:20.466Z,2.80
2023-02-15T12:23:23.249Z,2.25
2023-02-15T12:28:34.908Z,2.28
2023-02-15T12:33:44.572Z,2.80
2023-02-15T12:39:15.044Z,2.53
2023-02-15T12:44:24.755Z,2.83
2023-02-15T12:49:28.914Z,2.20
2023-02-15T12:54:42.622Z,1.60
2023-02-15T12:59:55.912Z,2.25
2023-02-15T13:05:04.936Z,2.50
2023-02-15T13:10:22.788Z,2.35
2023-02-15T13:15:41.827Z,2.08
2023-02-15T13:20:46.359Z,3.53
2023-02-15T13:25:51.646Z,3.55
2023-02-15T13:30:54.485Z,5.15
2023-02-15T13:36:15.915Z,4.93
2023-02-15T13:41:25.874Z,4.63
2023-02-15T13:46:49.842Z,5.38
2023-02-15T13:52:14.172Z,6.78
2023-02-15T13:57:34.592Z,5.68
2023-02-15T14:02:47.440Z,5.13
2023-02-15T14:08:19.849Z,4.55
2023-02-15T14:13:27.916Z,5.30
2023-02-15T14:18:37.120Z,5.03
2023-02-15T14:23:54.845Z,5.03
2023-02-15T14:29:06.844Z,5.88
2023-02-15T14:34:22.188Z,5.47
2023-02-15T14:40:27.870Z,6.78
2023-02-15T14:45:44.211Z,4.13
2023-02-15T14:50:48.095Z,3.33
2023-02-15T14:56:06.336Z,3.63
2023-02-15T15:01:12.352Z,2.88
2023-02-15T15:06:30.619Z,3.17
2023-02-15T15:11:44.120Z,3.17
2023-02-15T15:16:51.932Z,3.13
2023-02-15T15:21:55.047Z,3.63
2023-02-15T15:27:34.459Z,3.25
2023-02-15T15:32:36.824Z,3.42
2023-02-15T15:38:03.545Z,3.22
2023-02-15T15:43:37.885Z,2.88
2023-02-15T15:48:42.130Z,3.28
2023-02-15T15:53:49.724Z,3.63
2023-02-15T15:59:18.481Z,3.90
2023-02-15T16:04:31.083Z,2.95
2023-02-15T16:09:33.368Z,4.05
2023-02-15T16:14:40.641Z,4.05
2023-02-15T16:19:44.076Z,4.00
2023-02-15T16:25:24.391Z,3.85
2023-02-15T16:30:34.709Z,3.35
2023-02-15T16:35:39.274Z,2.92
2023-02-15T16:40:53.621Z,3.20
2023-02-15T16:46:05.051Z,2.90
2023-02-15T16:51:07.195Z,2.67
2023-02-15T16:56:10.260Z,2.85
2023-02-15T17:01:16.858Z,2.63
2023-02-15T17:06:27.928Z,3.05
2023-02-15T17:11:56.582Z,2.40
2023-02-15T17:17:07.519Z,2.95
2023-02-15T17:22:20.913Z,2.60
2023-02-15T17:27:26.299Z,2.92
2023-02-15T17:32:31.423Z,5.70
2023-02-15T17:37:39.386Z,5.82
2023-02-15T17:42:41.347Z,5.55
2023-02-15T17:47:43.789Z,5.20
2023-02-15T17:52:45.794Z,5.15
2023-02-15T17:57:47.554Z,4.07
2023-02-15T18:03:07.993Z,3.50
2023-02-15T18:08:45.667Z,3.50
2023-02-15T18:13:47.648Z,3.03
2023-02-15T18:18:50.118Z,3.90
2023-02-15T18:23:51.996Z,3.47
2023-02-15T18:28:54.094Z,4.53
2023-02-15T18:33:59.987Z,3.38
2023-02-15T18:39:08.501Z,3.15
2023-02-15T18:44:12.599Z,3.20
2023-02-15T18:49:14.421Z,3.10
2023-02-15T18:54:22.614Z,3.35
2023-02-15T18:59:26.600Z,2.90
2023-02-15T19:04:28.699Z,3.28
2023-02-15T19:09:31.323Z,3.45
2023-02-15T19:14:33.745Z,2.72
2023-02-15T19:19:35.749Z,3.08
2023-02-15T19:24:40.806Z,3.25
2023-02-15T19:29:42.630Z,3.05
2023-02-15T19:34:44.518Z,3.55
2023-02-15T19:39:46.691Z,3.40
2023-02-15T19:44:48.959Z,5.93
2023-02-15T19:49:51.099Z,3.88
2023-02-15T19:54:55.253Z,3.83
2023-02-15T19:59:57.168Z,4.18
2023-02-15T20:05:00.459Z,4.80
2023-02-15T20:10:02.751Z,3.95
2023-02-15T20:15:18.458Z,3.90
2023-02-15T20:20:21.957Z,3.15
2023-02-15T20:25:28.811Z,3.20
2023-02-15T20:30:32.691Z,3.92
2023-02-15T20:35:34.774Z,3.22
2023-02-15T20:40:37.952Z,2.63
2023-02-15T20:45:39.842Z,2.90
2023-02-15T20:50:42.016Z,2.80
2023-02-15T20:55:43.868Z,3.70
2023-02-15T21:00:45.728Z,2.63
2023-02-15T21:05:50.090Z,2.75
2023-02-15T21:10:53.215Z,2.88
2023-02-15T21:15:55.912Z,3.75
2023-02-15T21:21:04.496Z,3.08
2023-02-15T21:26:13.946Z,3.38
2023-02-15T21:31:19.415Z,2.38
2023-02-15T21:36:24.668Z,2.97
2023-02-15T21:41:46.764Z,2.72
2023-02-15T21:47:07.637Z,3.67
2023-02-15T21:52:12.952Z,3.40
2023-02-15T21:57:17.220Z,3.67
2023-02-15T22:02:26.767Z,2.95
2023-02-15T22:07:28.682Z,3.67
2023-02-15T22:12:30.485Z,3.22
2023-02-15T22:17:34.623Z,2.97
2023-02-15T22:22:36.292Z,4.30
2023-02-15T22:27:40.627Z,3.55
2023-02-15T22:32:42.471Z,3.00
2023-02-15T22:37:44.355Z,4.10
2023-02-15T22:42:49.278Z,2.88
2023-02-15T22:47:57.581Z,3.20
2023-02-15T22:53:01.448Z,3.70
2023-02-15T22:58:04.254Z,3.47
2023-02-15T23:03:17.158Z,3.05
2023-02-15T23:08:19.264Z,2.97
2023-02-15T23:13:26.308Z,4.53
2023-02-15T23:18:40.248Z,3.15
2023-02-15T23:23:45.073Z,3.22
2023-02-15T23:28:47.580Z,3.17
2023-02-15T23:33:50.193Z,3.20
2023-02-15T23:38:52.968Z,3.20
2023-02-15T23:44:02.408Z,2.97
2023-02-15T23:49:15.221Z,2.83
2023-02-15T23:54:18.842Z,2.72
2023-02-15T23:59:32.099Z,2.90
